Time;durP1;ratioP1;P1;durP2;ratioP2;P2;SDS_P1;SDS_P2;PMS_P1;PMS_P2;Temp;Humidity;BMP_temperature;BMP_pressure;BME280_temperature;BME280_humidity;BME280_pressure;Samples;Min_cycle;Max_cycle;Signal;HPM_P1;HPM_P2
2022/09/22 00:01:16;;;;;;;1.35;0.88;;;9.40;99.90;;;;;;4992320;28;20471;-87
2022/09/22 00:03:47;;;;;;;1.38;0.88;;;9.40;99.90;;;;;;4987749;28;20042;-86
2022/09/22 00:06:21;;;;;;;2.30;1.23;;;9.30;99.90;;;;;;5001679;28;20054;-87
2022/09/22 00:08:53;;;;;;;2.35;0.98;;;9.20;99.90;;;;;;4988542;28;20692;-86
2022/09/22 00:11:27;;;;;;;2.55;1.23;;;9.30;99.90;;;;;;4976034;28;20050;-85
2022/09/22 00:13:57;;;;;;;1.30;1.10;;;9.30;99.90;;;;;;4998449;28;20057;-87
2022/09/22 00:16:30;;;;;;;1.65;1.10;;;9.30;99.90;;;;;;5009110;28;20057;-87
2022/09/22 00:18:57;;;;;;;0.98;0.88;;;9.30;99.90;;;;;;5005782;28;20042;-86
2022/09/22 00:21:29;;;;;;;1.25;0.75;;;9.30;99.90;;;;;;4987374;28;20045;-86
2022/09/22 00:23:56;;;;;;;4.43;1.00;;;9.20;99.90;;;;;;4999141;28;20547;-87
2022/09/22 00:26:23;;;;;;;2.20;1.88;;;9.30;99.90;;;;;;5005584;28;20507;-86
2022/09/22 00:28:51;;;;;;;0.73;0.73;;;9.20;99.90;;;;;;4997354;28;20468;-86
2022/09/22 00:31:21;;;;;;;1.75;1.00;;;9.20;99.90;;;;;;5005139;28;20064;-86
2022/09/22 00:33:49;;;;;;;2.55;1.02;;;9.20;99.90;;;;;;4991810;28;20116;-86
2022/09/22 00:36:17;;;;;;;1.38;1.02;;;9.20;99.90;;;;;;5008479;28;20057;-86
2022/09/22 00:38:45;;;;;;;1.80;0.90;;;9.20;99.90;;;;;;4985377;28;20509;-86
2022/09/22 00:41:17;;;;;;;2.15;0.80;;;9.20;99.90;;;;;;5008797;28;20601;-87
2022/09/22 00:43:48;;;;;;;1.50;0.80;;;9.30;99.90;;;;;;4994146;28;20070;-87
2022/09/22 00:46:23;;;;;;;2.15;0.98;;;9.20;99.90;;;;;;5003771;28;20133;-87
2022/09/22 00:48:56;;;;;;;1.15;1.05;;;9.20;99.90;;;;;;4985543;28;20046;-86
2022/09/22 00:51:29;;;;;;;2.13;1.00;;;9.20;99.90;;;;;;5005811;28;20165;-87
2022/09/22 00:53:58;;;;;;;1.55;1.00;;;9.10;99.90;;;;;;5001435;28;20051;-86
2022/09/22 00:56:48;;;;;;;3.03;0.90;;;9.10;99.90;;;;;;4991284;28;20058;-86
2022/09/22 00:59:18;;;;;;;1.70;1.00;;;9.10;99.90;;;;;;4989167;28;20056;-88
2022/09/22 01:01:45;;;;;;;2.40;1.00;;;9.10;99.90;;;;;;5006015;28;20046;-86
2022/09/22 01:04:13;;;;;;;1.63;1.13;;;9.10;99.90;;;;;;4968722;28;20047;-86
2022/09/22 01:06:41;;;;;;;3.25;0.82;;;9.00;99.90;;;;;;5007519;28;20136;-86
2022/09/22 01:09:09;;;;;;;2.25;0.65;;;9.00;99.90;;;;;;4990286;28;20567;-86
2022/09/22 01:11:38;;;;;;;0.70;0.70;;;8.90;99.90;;;;;;4975415;28;20051;-87
2022/09/22 01:14:20;;;;;;;1.48;1.00;;;8.90;99.90;;;;;;4989661;28;20046;-86
2022/09/22 01:17:14;;;;;;;1.50;0.80;;;8.90;99.90;;;;;;5007174;28;20144;-85
2022/09/22 01:19:46;;;;;;;1.95;1.17;;;8.90;99.90;;;;;;4980936;28;20053;-86
2022/09/22 01:22:22;;;;;;;2.05;0.85;;;8.90;99.90;;;;;;4964309;28;20479;-86
2022/09/22 01:25:33;;;;;;;3.13;0.82;;;8.90;99.90;;;;;;5002538;28;20054;-87
2022/09/22 01:28:00;;;;;;;2.42;0.90;;;8.90;99.90;;;;;;4959529;28;20054;-86
2022/09/22 01:30:45;;;;;;;1.77;0.85;;;8.90;99.90;;;;;;4986733;28;20056;-86
2022/09/22 01:33:39;;;;;;;2.60;0.90;;;8.80;99.90;;;;;;4990042;28;20117;-86
2022/09/22 01:36:18;;;;;;;1.70;1.10;;;8.80;99.90;;;;;;4980195;28;20086;-86
2022/09/22 01:38:51;;;;;;;2.25;1.00;;;8.70;99.90;;;;;;4986990;28;20049;-86
2022/09/22 01:41:33;;;;;;;0.93;0.80;;;8.70;99.90;;;;;;4983392;28;20420;-86
2022/09/22 01:44:06;;;;;;;3.03;0.90;;;8.70;99.90;;;;;;4978914;28;20571;-86
2022/09/22 01:46:40;;;;;;;1.40;0.85;;;8.60;99.90;;;;;;5002726;28;20046;-86
2022/09/22 01:49:12;;;;;;;1.27;0.82;;;8.60;99.90;;;;;;4993151;28;20054;-85
2022/09/22 01:51:48;;;;;;;2.72;1.10;;;8.70;99.90;;;;;;4997566;28;20069;-88
2022/09/22 01:54:22;;;;;;;2.15;0.73;;;8.60;99.90;;;;;;4996405;28;20054;-86
2022/09/22 01:56:54;;;;;;;1.25;0.82;;;8.60;99.90;;;;;;4988232;28;20057;-87
2022/09/22 01:59:24;;;;;;;4.10;1.00;;;8.50;99.90;;;;;;4974872;28;20057;-88
2022/09/22 02:02:03;;;;;;;2.45;1.13;;;8.60;99.90;;;;;;5000332;28;20050;-87
2022/09/22 02:04:44;;;;;;;3.33;0.90;;;8.50;99.90;;;;;;5005205;28;20133;-87
2022/09/22 02:07:16;;;;;;;1.08;0.80;;;8.50;99.90;;;;;;4994057;28;20165;-88
2022/09/22 02:09:44;;;;;;;6.28;1.20;;;8.50;99.90;;;;;;5006863;28;20141;-87
2022/09/22 02:12:11;;;;;;;2.47;0.80;;;8.40;99.90;;;;;;5005138;28;20064;-88
2022/09/22 02:14:37;;;;;;;1.25;0.95;;;8.40;99.90;;;;;;4995770;28;20049;-86
2022/09/22 02:17:04;;;;;;;1.70;0.95;;;8.20;99.90;;;;;;5007326;28;20046;-86
2022/09/22 02:19:39;;;;;;;1.73;1.15;;;8.30;99.90;;;;;;5007171;28;20077;-88
2022/09/22 02:22:08;;;;;;;3.13;1.05;;;8.30;99.90;;;;;;5014340;28;20045;-88
2022/09/22 02:24:43;;;;;;;2.88;1.33;;;8.30;99.90;;;;;;5022551;28;20089;-88
2022/09/22 02:27:25;;;;;;;1.45;1.00;;;8.40;99.90;;;;;;4999516;28;20050;-87
2022/09/22 02:30:03;;;;;;;2.45;1.48;;;8.40;99.90;;;;;;5014267;28;20105;-87
2022/09/22 02:32:32;;;;;;;2.17;1.10;;;8.30;99.90;;;;;;4987138;28;20047;-86
2022/09/22 02:35:00;;;;;;;1.10;1.00;;;8.30;99.90;;;;;;5005865;28;20046;-86
2022/09/22 02:37:49;;;;;;;3.40;1.27;;;8.30;99.90;;;;;;4984073;28;20125;-86
2022/09/22 02:40:45;;;;;;;2.28;1.23;;;8.30;99.90;;;;;;4991894;28;20057;-86
2022/09/22 02:43:15;;;;;;;5.22;1.52;;;8.30;99.90;;;;;;4986283;28;20711;-85
2022/09/22 02:45:56;;;;;;;1.35;1.20;;;8.30;99.90;;;;;;5002292;28;20061;-85
2022/09/22 02:48:34;;;;;;;;;;;8.30;99.90;;;;;;4986304;28;20045;-86
2022/09/22 02:51:02;;;;;;;4.65;1.27;;;8.30;99.90;;;;;;4995533;28;20128;-87
2022/09/22 02:53:28;;;;;;;3.80;1.20;;;8.30;99.90;;;;;;4990192;28;20046;-85
2022/09/22 02:55:56;;;;;;;3.05;1.38;;;8.20;99.90;;;;;;5010118;28;20145;-86
2022/09/22 02:58:22;;;;;;;1.33;1.10;;;8.20;99.90;;;;;;5007886;28;20145;-85
2022/09/22 03:00:49;;;;;;;2.58;1.02;;;8.20;99.90;;;;;;4994022;28;20132;-84
2022/09/22 03:03:16;;;;;;;4.60;1.20;;;8.20;99.90;;;;;;4991065;28;20046;-86
2022/09/22 03:05:43;;;;;;;1.17;1.08;;;8.20;99.90;;;;;;4992856;28;20162;-85
2022/09/22 03:08:09;;;;;;;1.98;1.13;;;8.20;99.90;;;;;;4977297;28;20058;-84
2022/09/22 03:10:36;;;;;;;1.05;0.90;;;8.20;99.90;;;;;;4977871;28;20054;-85
2022/09/22 03:13:03;;;;;;;2.63;1.05;;;8.10;99.90;;;;;;4978825;28;20078;-84
2022/09/22 03:15:45;;;;;;;4.93;1.13;;;8.10;99.90;;;;;;4998220;28;20498;-85
2022/09/22 03:18:13;;;;;;;1.38;1.00;;;8.10;99.90;;;;;;5001524;28;20077;-86
2022/09/22 03:20:40;;;;;;;1.48;0.95;;;8.10;99.90;;;;;;5001582;28;20519;-85
2022/09/22 03:23:07;;;;;;;2.33;1.05;;;8.10;99.90;;;;;;4987202;28;20053;-85
2022/09/22 03:25:33;;;;;;;2.38;0.93;;;8.10;99.90;;;;;;5004127;28;20414;-85
2022/09/22 03:28:00;;;;;;;2.70;1.00;;;8.10;99.90;;;;;;4988330;28;20046;-85
2022/09/22 03:30:27;;;;;;;1.75;1.00;;;8.10;99.90;;;;;;5004337;28;20068;-86
2022/09/22 03:32:54;;;;;;;0.88;0.73;;;8.10;99.90;;;;;;4989277;28;20060;-87
2022/09/22 03:35:20;;;;;;;2.65;1.38;;;8.00;99.90;;;;;;4993522;28;20076;-85
2022/09/22 03:37:47;;;;;;;1.90;1.20;;;8.00;99.90;;;;;;4990576;28;20058;-85
2022/09/22 03:40:14;;;;;;;3.53;1.40;;;8.00;99.90;;;;;;4968975;28;20046;-85
2022/09/22 03:42:41;;;;;;;2.92;1.48;;;7.90;99.90;;;;;;5002551;28;20061;-85
2022/09/22 03:45:08;;;;;;;3.08;1.30;;;7.90;99.90;;;;;;4995727;28;20057;-86
2022/09/22 03:47:35;;;;;;;3.08;1.20;;;8.00;99.90;;;;;;5008206;28;20050;-85
2022/09/22 03:50:02;;;;;;;4.07;1.70;;;8.00;99.90;;;;;;4980414;28;20097;-85
2022/09/22 03:52:28;;;;;;;2.97;1.10;;;8.00;99.90;;;;;;5004671;28;20397;-86
2022/09/22 03:54:55;;;;;;;1.42;1.10;;;8.00;99.90;;;;;;4991646;28;20054;-85
2022/09/22 03:57:22;;;;;;;3.53;1.15;;;8.00;99.90;;;;;;5004807;28;20051;-85
2022/09/22 03:59:48;;;;;;;2.80;0.90;;;8.00;99.90;;;;;;4990717;28;20664;-88
2022/09/22 04:02:15;;;;;;;1.60;1.25;;;8.00;99.90;;;;;;5004775;28;20077;-86
2022/09/22 04:04:42;;;;;;;1.38;0.95;;;8.00;99.90;;;;;;4994923;28;20500;-86
2022/09/22 04:07:09;;;;;;;3.25;1.42;;;7.90;99.90;;;;;;5000209;28;20503;-85
2022/09/22 04:09:36;;;;;;;2.30;1.10;;;7.90;99.90;;;;;;4989181;28;20486;-85
2022/09/22 04:12:02;;;;;;;1.92;1.38;;;7.80;99.90;;;;;;5002452;28;20060;-86
2022/09/22 04:14:29;;;;;;;1.98;1.08;;;7.80;99.90;;;;;;4988126;28;20056;-86
2022/09/22 04:16:56;;;;;;;8.68;3.35;;;7.80;99.90;;;;;;5004246;28;20135;-87
2022/09/22 04:19:23;;;;;;;3.85;3.53;;;7.70;99.90;;;;;;5005353;28;20097;-85
2022/09/22 04:21:49;;;;;;;5.93;5.43;;;7.70;99.90;;;;;;4987775;28;20061;-86
2022/09/22 04:24:23;;;;;;;2.72;2.42;;;7.70;99.90;;;;;;4986812;28;20046;-87
2022/09/22 04:26:50;;;;;;;3.75;2.08;;;7.70;99.90;;;;;;4998145;28;20061;-86
2022/09/22 04:29:37;;;;;;;1.70;1.60;;;7.80;99.90;;;;;;4997541;28;20419;-85
2022/09/22 04:32:04;;;;;;;3.33;2.17;;;7.70;99.90;;;;;;4990368;28;20057;-85
2022/09/22 04:34:31;;;;;;;1.40;1.30;;;7.70;99.90;;;;;;4985979;28;20050;-84
2022/09/22 04:36:57;;;;;;;2.28;1.15;;;7.70;99.90;;;;;;4983786;28;20478;-85
2022/09/22 04:39:27;;;;;;;2.22;1.25;;;7.70;99.90;;;;;;5002789;28;20054;-85
2022/09/22 04:41:54;;;;;;;2.57;1.70;;;7.70;99.90;;;;;;4999526;28;20046;-84
2022/09/22 04:44:21;;;;;;;3.22;1.50;;;7.70;99.90;;;;;;4982518;28;20085;-85
2022/09/22 04:46:49;;;;;;;3.72;1.30;;;7.70;99.90;;;;;;4991291;28;20416;-88
2022/09/22 04:49:17;;;;;;;3.08;1.50;;;7.70;99.90;;;;;;5006426;28;20049;-90
2022/09/22 04:51:44;;;;;;;1.60;1.25;;;7.60;99.90;;;;;;5027151;28;20053;-90
2022/09/22 04:54:10;;;;;;;3.20;1.20;;;7.60;99.90;;;;;;5016594;28;20061;-89
2022/09/22 04:56:37;;;;;;;1.83;1.20;;;7.60;99.90;;;;;;5013168;28;20102;-89
2022/09/22 04:59:04;;;;;;;2.80;1.40;;;7.50;99.90;;;;;;5015258;28;20054;-89
2022/09/22 05:01:31;;;;;;;4.70;1.45;;;7.50;99.90;;;;;;5012177;28;20042;-92
2022/09/22 05:03:58;;;;;;;3.65;2.20;;;7.50;99.90;;;;;;4989950;28;20061;-85
2022/09/22 05:06:25;;;;;;;3.15;1.40;;;7.50;99.90;;;;;;5014439;28;20054;-85
2022/09/22 05:08:52;;;;;;;2.22;1.58;;;7.50;99.90;;;;;;4997082;28;20060;-85
2022/09/22 05:11:23;;;;;;;2.50;1.52;;;7.40;99.90;;;;;;4992182;28;20114;-87
2022/09/22 05:13:50;;;;;;;2.72;1.85;;;7.40;99.90;;;;;;4985997;28;20061;-86
2022/09/22 05:16:16;;;;;;;2.22;1.42;;;7.40;99.90;;;;;;5005530;28;20058;-86
2022/09/22 05:18:43;;;;;;;3.10;1.40;;;7.50;99.90;;;;;;4993574;28;20144;-86
2022/09/22 05:21:10;;;;;;;3.45;1.60;;;7.50;99.90;;;;;;4995000;28;20046;-86
2022/09/22 05:23:38;;;;;;;3.15;1.60;;;7.40;99.90;;;;;;4994001;28;20057;-88
2022/09/22 05:26:05;;;;;;;3.67;1.48;;;7.40;99.90;;;;;;5010608;28;20053;-87
2022/09/22 05:28:32;;;;;;;1.55;1.42;;;7.40;99.90;;;;;;5013816;28;20479;-87
2022/09/22 05:30:59;;;;;;;4.18;1.50;;;7.30;99.90;;;;;;5008828;28;20064;-85
2022/09/22 05:33:26;;;;;;;2.90;1.80;;;7.30;99.90;;;;;;4996317;28;20058;-87
2022/09/22 05:35:53;;;;;;;3.50;1.63;;;7.30;99.90;;;;;;4991522;28;20061;-86
2022/09/22 05:38:19;;;;;;;3.80;1.20;;;7.20;99.90;;;;;;5002016;28;20118;-84
2022/09/22 05:40:46;;;;;;;1.60;1.33;;;7.30;99.90;;;;;;4993990;28;20074;-88
2022/09/22 05:43:13;;;;;;;2.17;1.40;;;7.30;99.90;;;;;;5000381;28;20049;-84
2022/09/22 05:45:41;;;;;;;3.75;1.38;;;7.20;99.90;;;;;;4980673;28;20042;-85
2022/09/22 05:48:08;;;;;;;3.05;1.20;;;7.30;99.90;;;;;;4995607;28;20104;-83
2022/09/22 05:50:34;;;;;;;8.15;2.47;;;7.20;99.90;;;;;;5018408;28;20590;-86
2022/09/22 05:53:07;;;;;;;7.03;2.08;;;7.40;99.90;;;;;;4996707;28;20061;-85
2022/09/22 05:55:34;;;;;;;2.97;1.65;;;7.40;99.90;;;;;;4998794;28;20053;-85
2022/09/22 05:58:01;;;;;;;3.97;2.33;;;7.40;99.90;;;;;;4997013;28;20088;-85
2022/09/22 06:00:28;;;;;;;3.67;1.90;;;7.40;99.90;;;;;;4995991;28;20137;-84
2022/09/22 06:02:55;;;;;;;3.88;1.90;;;7.40;99.90;;;;;;4999224;28;20129;-85
2022/09/22 06:05:22;;;;;;;3.67;1.60;;;7.40;99.90;;;;;;4975491;28;20160;-85
2022/09/22 06:07:59;;;;;;;4.95;1.75;;;7.50;99.90;;;;;;4975464;28;20042;-85
2022/09/22 06:10:26;;;;;;;2.55;1.63;;;7.40;99.90;;;;;;5002056;28;20086;-85
2022/09/22 06:12:58;;;;;;;5.95;1.80;;;7.40;99.90;;;;;;4976703;28;20058;-85
2022/09/22 06:15:25;;;;;;;1.30;1.20;;;7.50;99.90;;;;;;5003723;28;20054;-85
2022/09/22 06:17:52;;;;;;;4.40;1.50;;;7.40;99.90;;;;;;4980459;28;20059;-85
2022/09/22 06:20:19;;;;;;;3.88;1.60;;;7.40;99.90;;;;;;4988221;28;20046;-85
2022/09/22 06:22:46;;;;;;;4.10;1.83;;;7.50;99.90;;;;;;5005861;28;20046;-85
2022/09/22 06:25:16;;;;;;;;;;;7.50;99.90;;;;;;4971935;28;20047;-84
2022/09/22 06:27:43;;;;;;;1.80;1.40;;;7.60;99.90;;;;;;4978040;28;19926;-85
2022/09/22 06:30:11;;;;;;;2.75;2.03;;;7.60;99.90;;;;;;4990102;28;20068;-85
2022/09/22 06:32:38;;;;;;;2.38;1.30;;;7.60;99.90;;;;;;4995025;28;20058;-85
2022/09/22 06:35:06;;;;;;;5.03;1.90;;;7.60;99.90;;;;;;4995004;28;20054;-85
2022/09/22 06:37:37;;;;;;;3.55;1.63;;;7.70;99.90;;;;;;4992542;28;20045;-87
2022/09/22 06:40:07;;;;;;;3.00;1.77;;;7.70;99.90;;;;;;4985261;28;20058;-85
2022/09/22 06:42:34;;;;;;;3.85;1.80;;;7.70;99.90;;;;;;4986005;28;20097;-85
2022/09/22 06:45:03;;;;;;;2.88;1.80;;;7.70;99.90;;;;;;4990541;28;20108;-86
2022/09/22 06:47:31;;;;;;;5.47;2.42;;;7.80;99.90;;;;;;4984803;28;20046;-86
2022/09/22 06:50:00;;;;;;;7.78;2.78;;;7.80;99.90;;;;;;4972185;28;20120;-85
2022/09/22 06:52:27;;;;;;;3.83;2.60;;;7.90;99.90;;;;;;4987488;28;20526;-85
2022/09/22 06:54:57;;;;;;;5.80;2.83;;;7.90;99.90;;;;;;4974129;28;20058;-85
2022/09/22 06:57:26;;;;;;;4.63;2.70;;;7.90;99.90;;;;;;4983027;28;20487;-86
2022/09/22 06:59:53;;;;;;;3.53;2.90;;;8.00;99.90;;;;;;4998448;28;20582;-85
2022/09/22 07:02:26;;;;;;;4.32;3.00;;;8.00;99.90;;;;;;4991070;28;20443;-85
2022/09/22 07:04:57;;;;;;;5.07;3.47;;;8.10;99.90;;;;;;4983955;28;20051;-85
2022/09/22 07:07:30;;;;;;;7.53;2.95;;;8.10;99.90;;;;;;4997200;28;20133;-87
2022/09/22 07:09:57;;;;;;;6.25;3.13;;;8.10;99.90;;;;;;4984432;28;20141;-87
2022/09/22 07:12:25;;;;;;;2.90;2.35;;;8.10;99.90;;;;;;4989345;28;20046;-85
2022/09/22 07:14:53;;;;;;;4.80;2.78;;;8.10;99.90;;;;;;4980489;28;20053;-85
2022/09/22 07:17:20;;;;;;;5.93;2.58;;;8.10;99.90;;;;;;4978307;28;20138;-86
2022/09/22 07:19:47;;;;;;;5.75;2.70;;;8.10;99.90;;;;;;4980882;28;20062;-86
2022/09/22 07:22:15;;;;;;;5.70;2.72;;;8.20;99.90;;;;;;4980143;28;20069;-85
2022/09/22 07:24:42;;;;;;;4.40;2.50;;;8.20;99.90;;;;;;4990372;28;20045;-84
2022/09/22 07:27:09;;;;;;;2.90;2.58;;;8.20;99.90;;;;;;5003144;28;20488;-84
2022/09/22 07:29:37;;;;;;;3.10;2.42;;;8.30;99.90;;;;;;4989561;28;20065;-84
2022/09/22 07:32:04;;;;;;;4.30;2.58;;;8.30;99.90;;;;;;5008614;28;20054;-85
2022/09/22 07:34:31;;;;;;;5.93;2.65;;;8.40;99.90;;;;;;5004713;28;20129;-85
2022/09/22 07:36:58;;;;;;;3.83;2.60;;;8.50;99.90;;;;;;5008554;28;20049;-84
2022/09/22 07:39:25;;;;;;;4.07;2.30;;;8.50;99.90;;;;;;5008796;28;20042;-85
2022/09/22 07:41:51;;;;;;;4.05;2.30;;;8.60;99.90;;;;;;4992144;28;20085;-84
2022/09/22 07:47:09;;;;;;;3.92;2.30;;;8.70;99.90;;;;;;5001511;28;20133;-85
2022/09/22 07:49:36;;;;;;;4.63;2.65;;;8.80;99.90;;;;;;4976001;28;20316;-84
2022/09/22 07:52:03;;;;;;;3.97;2.50;;;8.80;99.90;;;;;;4997108;28;20051;-84
2022/09/22 07:54:32;;;;;;;3.45;2.42;;;8.90;99.90;;;;;;4998310;28;20149;-84
2022/09/22 07:57:05;;;;;;;3.00;2.30;;;8.90;99.90;;;;;;4985140;28;20043;-86
2022/09/22 07:59:32;;;;;;;4.60;2.40;;;9.00;99.90;;;;;;4981395;28;20046;-85
2022/09/22 08:02:00;;;;;;;4.22;2.20;;;9.00;99.90;;;;;;5000420;28;20046;-85
2022/09/22 08:04:30;;;;;;;3.13;1.80;;;9.10;99.90;;;;;;4997585;28;20561;-87
2022/09/22 08:06:57;;;;;;;4.82;2.00;;;9.10;99.90;;;;;;5006599;28;20058;-85
2022/09/22 08:09:24;;;;;;;5.68;2.20;;;9.20;99.90;;;;;;4991031;28;20141;-86
2022/09/22 08:11:52;;;;;;;3.72;2.30;;;9.30;99.90;;;;;;5007104;28;20519;-85
2022/09/22 08:14:22;;;;;;;2.72;1.80;;;9.30;99.90;;;;;;4992029;28;20104;-85
2022/09/22 08:16:52;;;;;;;2.88;1.90;;;9.40;99.90;;;;;;4997959;28;20054;-85
2022/09/22 08:19:22;;;;;;;3.22;1.85;;;9.40;99.90;;;;;;5005233;28;20442;-85
2022/09/22 08:21:52;;;;;;;2.20;1.85;;;9.50;99.90;;;;;;5001148;28;20127;-85
2022/09/22 08:24:20;;;;;;;3.70;1.38;;;9.50;99.90;;;;;;4999895;28;20046;-85
2022/09/22 08:26:49;;;;;;;2.95;2.05;;;9.60;99.90;;;;;;5003705;28;20054;-85
2022/09/22 08:29:16;;;;;;;2.88;1.85;;;9.60;99.90;;;;;;4989287;28;20062;-84
2022/09/22 08:31:46;;;;;;;2.28;1.70;;;9.70;99.90;;;;;;4993975;28;20133;-85
2022/09/22 08:34:15;;;;;;;6.53;1.73;;;9.70;99.90;;;;;;4996502;28;20058;-84
2022/09/22 08:36:47;;;;;;;5.53;1.83;;;9.80;99.90;;;;;;4995347;28;20060;-86
2022/09/22 08:39:15;;;;;;;3.42;1.90;;;9.80;99.90;;;;;;4998500;28;20146;-85
2022/09/22 08:41:54;;;;;;;2.70;2.25;;;9.90;99.90;;;;;;4995744;28;20078;-85
2022/09/22 08:44:27;;;;;;;4.90;2.15;;;9.90;99.90;;;;;;4979693;28;20055;-86
2022/09/22 08:46:58;;;;;;;3.10;1.98;;;10.00;99.90;;;;;;5004913;28;20132;-86
2022/09/22 08:52:28;;;;;;;6.10;2.00;;;10.10;99.90;;;;;;4994257;28;20058;-85
2022/09/22 08:54:58;;;;;;;2.40;1.70;;;10.20;99.90;;;;;;4980028;28;20054;-85
2022/09/22 08:57:37;;;;;;;4.90;1.90;;;10.30;99.90;;;;;;5003891;28;20046;-85
2022/09/22 09:00:16;;;;;;;6.57;2.23;;;10.30;99.90;;;;;;5005086;28;20435;-85
2022/09/22 09:03:33;;;;;;;3.45;2.13;;;10.40;99.90;;;;;;4976675;28;20093;-86
2022/09/22 09:06:14;;;;;;;4.60;2.03;;;10.50;99.90;;;;;;4943574;28;20082;-85
2022/09/22 09:08:47;;;;;;;3.70;1.90;;;10.50;99.90;;;;;;5004247;28;20042;-85
2022/09/22 09:11:30;;;;;;;3.10;2.05;;;10.60;99.90;;;;;;5004415;28;20058;-85
2022/09/22 09:14:31;;;;;;;5.68;2.85;;;10.60;99.90;;;;;;4996276;28;20094;-86
2022/09/22 09:17:02;;;;;;;;;;;10.70;99.90;;;;;;4990620;28;20054;-85
2022/09/22 09:19:41;;;;;;;2.13;1.80;;;10.80;99.90;;;;;;5003337;28;19972;-85
2022/09/22 09:22:32;;;;;;;6.45;2.40;;;10.80;99.90;;;;;;4996067;28;20158;-86
2022/09/22 09:25:14;;;;;;;8.77;2.30;;;10.80;99.90;;;;;;4999610;28;20488;-86
2022/09/22 09:27:54;;;;;;;2.88;1.92;;;10.90;99.90;;;;;;4997767;28;20045;-86
2022/09/22 09:30:21;;;;;;;6.03;2.00;;;11.00;99.90;;;;;;4982261;28;20129;-85
2022/09/22 09:33:01;;;;;;;4.28;2.47;;;11.00;99.90;;;;;;4989999;28;20093;-85
2022/09/22 09:35:50;;;;;;;2.35;1.90;;;11.10;99.90;;;;;;5017192;28;20053;-85
2022/09/22 09:38:27;;;;;;;4.07;2.17;;;11.20;99.90;;;;;;5015731;28;20057;-85
2022/09/22 09:41:21;;;;;;;3.75;2.10;;;11.20;99.90;;;;;;4974578;28;20058;-85
2022/09/22 09:43:51;;;;;;;6.35;2.38;;;11.30;99.90;;;;;;4970604;28;20490;-85
2022/09/22 09:46:25;;;;;;;;;;;11.40;99.90;;;;;;4978641;28;20047;-85
2022/09/22 09:49:15;;;;;;;3.72;2.00;;;11.40;99.90;;;;;;4991787;28;19972;-85
2022/09/22 09:51:46;;;;;;;7.53;2.00;;;11.50;99.90;;;;;;4986388;28;20133;-85
2022/09/22 09:54:14;;;;;;;2.72;1.92;;;11.60;99.90;;;;;;4978105;28;20046;-85
2022/09/22 09:57:01;;;;;;;2.88;1.67;;;11.60;99.90;;;;;;4975377;28;20058;-84
2022/09/22 10:02:19;;;;;;;3.38;1.77;;;11.80;99.90;;;;;;5003564;28;20050;-85
2022/09/22 10:05:01;;;;;;;4.18;1.70;;;11.90;99.90;;;;;;4996935;28;20145;-85
2022/09/22 10:07:40;;;;;;;3.78;1.70;;;12.00;99.90;;;;;;4988648;28;20050;-85
2022/09/22 10:10:34;;;;;;;6.00;1.98;;;12.00;99.90;;;;;;5011159;28;20051;-85
2022/09/22 10:13:04;;;;;;;3.00;1.58;;;12.10;99.90;;;;;;5000123;28;20058;-85
2022/09/22 10:15:42;;;;;;;6.07;2.00;;;12.10;99.90;;;;;;5010221;28;20484;-85
2022/09/22 10:18:24;;;;;;;4.15;1.48;;;12.10;99.90;;;;;;4987501;28;20054;-87
2022/09/22 10:21:16;;;;;;;3.13;2.03;;;12.10;99.90;;;;;;4993106;28;20053;-86
2022/09/22 10:23:51;;;;;;;5.25;1.92;;;12.20;99.90;;;;;;5008361;28;20052;-85
2022/09/22 10:26:31;;;;;;;6.97;2.03;;;12.20;99.90;;;;;;5002125;28;20054;-85
2022/09/22 10:29:18;;;;;;;6.30;1.90;;;12.20;99.90;;;;;;4992012;28;20097;-85
2022/09/22 10:32:12;;;;;;;5.05;1.98;;;12.40;99.90;;;;;;5004047;28;20076;-86
2022/09/22 10:34:43;;;;;;;3.42;2.05;;;12.40;99.90;;;;;;5002878;28;20149;-85
2022/09/22 10:37:12;;;;;;;4.47;2.20;;;12.50;99.90;;;;;;5000840;28;20157;-85
2022/09/22 10:39:44;;;;;;;3.70;2.10;;;12.50;99.90;;;;;;4995312;28;20086;-85
2022/09/22 10:42:24;;;;;;;4.03;2.35;;;12.50;99.90;;;;;;4995836;28;20053;-85
2022/09/22 10:44:53;;;;;;;4.25;2.55;;;12.60;99.90;;;;;;4986709;28;20070;-85
2022/09/22 10:47:50;;;;;;;2.45;2.10;;;12.70;99.90;;;;;;5017240;28;20081;-87
2022/09/22 10:50:27;;;;;;;3.80;2.03;;;12.70;99.90;;;;;;5025670;28;20038;-87
2022/09/22 10:53:32;;;;;;;5.80;2.15;;;12.80;99.90;;;;;;5026534;28;20058;-87
2022/09/22 10:56:28;;;;;;;5.90;2.28;;;12.80;99.90;;;;;;5027410;28;20034;-85
2022/09/22 10:59:20;;;;;;;4.93;2.13;;;12.90;99.90;;;;;;5018063;28;20054;-86
2022/09/22 11:02:17;;;;;;;5.13;1.70;;;13.10;99.90;;;;;;4992718;28;20052;-83
2022/09/22 11:12:14;;;;;;;2.53;1.73;;;13.10;99.90;;;;;;4986006;28;20431;-83
2022/09/22 11:14:13;;;;;;;3.15;1.50;;;13.30;99.90;;;;;;5004994;28;20092;-84
2022/09/22 11:17:06;;;;;;;3.28;1.50;;;13.40;99.90;;;;;;4984486;28;20057;-84
2022/09/22 11:19:39;;;;;;;1.60;1.20;;;13.40;99.90;;;;;;4977528;28;20461;-85
2022/09/22 11:22:31;;;;;;;4.78;1.70;;;13.40;99.90;;;;;;4995043;28;20042;-85
2022/09/22 11:25:04;;;;;;;2.38;1.58;;;13.40;99.90;;;;;;5004413;28;20057;-84
2022/09/22 11:27:50;;;;;;;2.70;1.88;;;13.60;99.90;;;;;;5002930;28;20057;-85
2022/09/22 11:30:21;;;;;;;4.03;1.77;;;13.50;99.90;;;;;;5003329;28;20050;-83
2022/09/22 11:32:53;;;;;;;5.38;1.90;;;13.60;99.90;;;;;;5000821;28;20085;-85
2022/09/22 11:35:43;;;;;;;2.38;1.52;;;13.70;99.90;;;;;;4988611;28;20132;-84
2022/09/22 11:38:19;;;;;;;1.40;1.20;;;13.70;99.90;;;;;;4976344;28;20051;-85
2022/09/22 11:41:03;;;;;;;2.03;1.60;;;13.80;99.90;;;;;;4988994;28;20104;-84
2022/09/22 11:43:42;;;;;;;5.20;1.52;;;13.80;99.90;;;;;;4980460;28;20511;-84
2022/09/22 11:46:31;;;;;;;4.20;1.60;;;13.80;99.90;;;;;;5001987;28;20042;-84
2022/09/22 11:49:41;;;;;;;2.45;1.65;;;13.90;99.90;;;;;;5000141;28;20397;-84
2022/09/22 11:52:45;;;;;;;2.60;1.33;;;13.90;99.90;;;;;;4976621;28;20058;-84
2022/09/22 11:55:29;;;;;;;2.75;1.23;;;14.00;99.90;;;;;;5007641;28;20053;-85
2022/09/22 11:58:03;;;;;;;6.22;1.25;;;14.10;99.90;;;;;;5002892;28;20064;-84
2022/09/22 12:00:41;;;;;;;2.10;1.08;;;14.10;99.90;;;;;;5001313;28;20495;-84
2022/09/22 12:03:24;;;;;;;3.35;1.38;;;14.30;99.90;;;;;;5000457;28;20055;-85
2022/09/22 12:06:00;;;;;;;2.88;1.48;;;14.30;99.90;;;;;;4991504;28;20050;-84
2022/09/22 12:08:49;;;;;;;2.75;1.00;;;14.40;99.90;;;;;;5006531;28;20050;-85
2022/09/22 12:11:19;;;;;;;3.08;1.60;;;14.50;99.90;;;;;;4979621;28;20490;-84
2022/09/22 12:13:49;;;;;;;2.70;1.30;;;14.40;99.90;;;;;;4995187;28;20089;-85
2022/09/22 12:16:40;;;;;;;5.85;1.40;;;14.60;99.90;;;;;;4976007;28;20044;-84
2022/09/22 12:19:35;;;;;;;2.30;1.50;;;14.60;99.90;;;;;;4999399;28;20120;-85
2022/09/22 12:22:12;;;;;;;2.38;1.25;;;14.60;99.90;;;;;;4984402;28;20117;-84
2022/09/22 12:24:39;;;;;;;3.80;1.13;;;14.60;99.90;;;;;;4987887;28;20050;-84
2022/09/22 12:27:11;;;;;;;2.45;1.10;;;14.90;99.90;;;;;;4991165;28;20137;-85
2022/09/22 12:29:38;;;;;;;1.48;1.02;;;15.00;99.90;;;;;;5000642;28;20058;-85
2022/09/22 12:32:05;;;;;;;1.40;1.10;;;15.00;99.90;;;;;;5005790;28;20417;-85
2022/09/22 12:34:38;;;;;;;1.85;1.10;;;14.90;99.90;;;;;;4990693;28;20386;-85
2022/09/22 12:37:13;;;;;;;1.75;1.17;;;14.90;99.90;;;;;;5003865;28;20054;-85
2022/09/22 12:39:48;;;;;;;3.00;1.17;;;15.00;99.90;;;;;;4989513;28;20141;-85
2022/09/22 12:42:20;;;;;;;2.63;1.45;;;15.10;99.90;;;;;;5001655;28;20124;-85
2022/09/22 12:45:00;;;;;;;1.52;1.15;;;15.00;99.90;;;;;;4966866;28;20051;-84
2022/09/22 12:47:38;;;;;;;2.55;1.15;;;15.00;99.90;;;;;;4987389;28;20050;-84
2022/09/22 12:50:23;;;;;;;2.88;0.77;;;15.00;99.90;;;;;;5007548;28;20152;-84
2022/09/22 12:52:50;;;;;;;1.55;0.82;;;15.10;99.90;;;;;;4994710;28;20149;-84
2022/09/22 12:55:26;;;;;;;7.68;1.23;;;15.20;99.90;;;;;;4997992;28;20085;-87
2022/09/22 12:57:58;;;;;;;2.80;1.00;;;15.20;99.90;;;;;;4990419;28;20532;-86
2022/09/22 13:00:39;;;;;;;6.15;1.10;;;15.50;99.90;;;;;;5010559;28;20491;-86
2022/09/22 13:03:25;;;;;;;1.30;0.70;;;15.70;99.90;;;;;;4994246;28;20069;-85
2022/09/22 13:05:52;;;;;;;3.45;1.00;;;15.70;99.90;;;;;;4979282;28;20046;-85
2022/09/22 13:08:29;;;;;;;8.85;1.85;;;15.60;99.90;;;;;;5002375;28;20049;-87
2022/09/22 13:11:04;;;;;;;3.05;0.77;;;15.70;99.90;;;;;;4976455;28;20054;-88
2022/09/22 13:13:35;;;;;;;2.70;1.00;;;15.60;99.90;;;;;;4990745;28;20049;-85
2022/09/22 13:16:13;;;;;;;4.63;0.85;;;15.50;99.90;;;;;;4996909;28;20404;-87
2022/09/22 13:18:50;;;;;;;1.25;0.70;;;15.60;99.90;;;;;;4981352;28;20046;-87
2022/09/22 13:21:27;;;;;;;2.47;0.93;;;15.60;99.90;;;;;;5006117;28;20448;-86
2022/09/22 13:23:56;;;;;;;3.45;1.10;;;15.60;99.90;;;;;;5005838;28;20047;-87
2022/09/22 13:26:40;;;;;;;3.88;2.05;;;15.60;99.90;;;;;;5001442;28;20050;-87
2022/09/22 13:29:18;;;;;;;2.78;0.85;;;15.70;99.90;;;;;;4996935;28;20046;-88
2022/09/22 13:31:54;;;;;;;1.85;1.20;;;15.70;99.90;;;;;;4978584;28;20054;-88
2022/09/22 13:34:34;;;;;;;2.53;1.10;;;15.70;99.90;;;;;;4986883;28;20088;-87
2022/09/22 13:37:13;;;;;;;4.00;1.20;;;15.70;99.90;;;;;;5004648;28;20061;-87
2022/09/22 13:39:42;;;;;;;2.60;1.00;;;15.70;99.90;;;;;;5003005;28;20042;-87
2022/09/22 13:42:18;;;;;;;4.50;0.98;;;15.90;99.90;;;;;;5004459;28;20069;-87